createdAt,value
2019-02-14T00:01:12.960Z,-1.25
2019-02-14T00:03:44.205Z,-1.16
2019-02-14T00:06:15.735Z,-1.19
2019-02-14T00:08:47.244Z,-1.19
2019-02-14T00:11:18.685Z,-1.07
2019-02-14T00:13:51.172Z,-1.12
2019-02-14T00:16:22.703Z,-1.21
2019-02-14T00:18:53.995Z,-1.31
2019-02-14T00:21:25.269Z,-1.42
2019-02-14T00:23:56.755Z,-1.43
2019-02-14T00:26:27.944Z,-1.47
2019-02-14T00:28:59.123Z,-1.43
2019-02-14T00:31:32.900Z,-1.43
2019-02-14T00:34:04.363Z,-1.47
2019-02-14T00:36:35.591Z,-1.56
2019-02-14T00:39:07.573Z,-1.48
2019-02-14T00:41:39.984Z,-1.61
2019-02-14T00:44:11.460Z,-1.58
2019-02-14T00:46:42.664Z,-1.62
2019-02-14T00:49:14.323Z,-1.60
2019-02-14T00:51:46.122Z,-1.64
2019-02-14T00:54:17.498Z,-1.56
2019-02-14T00:56:49.084Z,-1.69
2019-02-14T00:59:20.280Z,-1.60
2019-02-14T01:01:51.730Z,-1.65
2019-02-14T01:04:23.062Z,-1.67
2019-02-14T01:06:54.724Z,-1.65
2019-02-14T01:09:26.201Z,-1.79
2019-02-14T01:11:57.437Z,-1.63
2019-02-14T01:14:28.768Z,-1.69
2019-02-14T01:16:59.980Z,-1.76
2019-02-14T01:19:31.240Z,-1.71
2019-02-14T01:22:02.417Z,-1.76
2019-02-14T01:24:33.833Z,-1.73
2019-02-14T01:27:05.070Z,-1.72
2019-02-14T01:29:36.523Z,-1.77
2019-02-14T01:32:08.721Z,-1.77
2019-02-14T01:34:40.033Z,-1.67
2019-02-14T01:37:11.382Z,-1.62
2019-02-14T01:39:42.591Z,-1.69
2019-02-14T01:42:13.778Z,-1.60
2019-02-14T01:44:45.353Z,-1.62
2019-02-14T01:47:18.203Z,-1.58
2019-02-14T01:49:49.387Z,-1.53
2019-02-14T01:52:20.877Z,-1.64
2019-02-14T01:54:52.088Z,-1.65
2019-02-14T01:57:23.541Z,-1.66
2019-02-14T01:59:54.746Z,-1.85
2019-02-14T02:02:26.352Z,-1.93
2019-02-14T02:04:57.756Z,-1.95
2019-02-14T02:07:29.183Z,-1.91
2019-02-14T02:10:00.772Z,-1.97
2019-02-14T02:12:32.261Z,-1.99
2019-02-14T02:15:03.928Z,-2.17
2019-02-14T02:17:35.930Z,-2.23
2019-02-14T02:20:08.011Z,-2.29
2019-02-14T02:22:39.704Z,-2.32
2019-02-14T02:25:12.034Z,-2.29
2019-02-14T02:27:43.619Z,-2.21
2019-02-14T02:30:15.568Z,-2.10
2019-02-14T02:32:47.085Z,-2.11
2019-02-14T02:35:18.516Z,-2.02
2019-02-14T02:37:50.044Z,-2.08
2019-02-14T02:40:21.396Z,-2.04
2019-02-14T02:42:52.648Z,-2.04
2019-02-14T02:45:24.374Z,-2.01
2019-02-14T02:47:56.012Z,-2.17
2019-02-14T02:50:27.402Z,-2.08
2019-02-14T02:52:58.648Z,-1.99
2019-02-14T02:55:29.943Z,-2.03
2019-02-14T02:58:01.264Z,-1.97
2019-02-14T03:00:32.591Z,-1.94
2019-02-14T03:03:04.295Z,-1.97
2019-02-14T03:05:35.506Z,-2.01
2019-02-14T03:08:07.048Z,-1.90
2019-02-14T03:10:38.502Z,-1.86
2019-02-14T03:13:10.987Z,-1.83
2019-02-14T03:15:42.655Z,-1.80
2019-02-14T03:18:13.880Z,-1.82
2019-02-14T03:20:45.414Z,-1.87
2019-02-14T03:23:16.861Z,-1.92
2019-02-14T03:25:48.346Z,-1.86
2019-02-14T03:28:19.892Z,-1.95
2019-02-14T03:30:51.555Z,-2.03
2019-02-14T03:33:23.049Z,-2.12
2019-02-14T03:35:54.558Z,-2.12
2019-02-14T03:38:26.011Z,-2.27
2019-02-14T03:40:57.514Z,-2.26
2019-02-14T03:43:28.913Z,-2.17
2019-02-14T03:46:00.248Z,-2.19
2019-02-14T03:48:31.502Z,-2.22
2019-02-14T03:51:02.750Z,-2.23
2019-02-14T03:53:34.111Z,-2.22
2019-02-14T03:56:05.430Z,-2.09
2019-02-14T03:58:36.780Z,-2.07
2019-02-14T04:01:08.275Z,-2.00
2019-02-14T04:03:40.946Z,-2.00
2019-02-14T04:06:12.630Z,-2.07
2019-02-14T04:08:44.211Z,-2.04
2019-02-14T04:11:15.773Z,-2.06
2019-02-14T04:13:47.420Z,-2.02
2019-02-14T04:16:19.041Z,-2.00
2019-02-14T04:18:50.391Z,-1.93
2019-02-14T04:21:21.882Z,-2.02
2019-02-14T04:23:53.215Z,-2.01
2019-02-14T04:26:24.808Z,-2.01
2019-02-14T04:28:56.370Z,-2.02
2019-02-14T04:31:27.927Z,-2.04
2019-02-14T04:33:59.542Z,-2.13
2019-02-14T04:36:36.150Z,-2.14
2019-02-14T04:39:05.609Z,-2.10
2019-02-14T04:41:37.024Z,-2.09
2019-02-14T04:44:08.484Z,-2.01
2019-02-14T04:46:40.130Z,-2.02
2019-02-14T04:49:11.614Z,-1.99
2019-02-14T04:51:43.190Z,-1.99
2019-02-14T04:54:14.590Z,-1.90
2019-02-14T04:56:45.978Z,-1.87
2019-02-14T04:59:17.466Z,-1.77
2019-02-14T05:01:48.878Z,-1.77
2019-02-14T05:04:20.425Z,-1.69
2019-02-14T05:06:51.984Z,-1.60
2019-02-14T05:09:23.538Z,-1.56
2019-02-14T05:11:55.064Z,-1.67
2019-02-14T05:14:26.575Z,-1.62
2019-02-14T05:16:58.017Z,-1.66
2019-02-14T05:19:29.277Z,-1.71
2019-02-14T05:22:01.005Z,-1.71
2019-02-14T05:24:32.643Z,-1.70
2019-02-14T05:27:04.256Z,-1.77
2019-02-14T05:29:35.542Z,-1.69
2019-02-14T05:32:07.105Z,-1.70
2019-02-14T05:34:38.640Z,-1.65
2019-02-14T05:37:09.869Z,-1.64
2019-02-14T05:39:41.277Z,-1.58
2019-02-14T05:42:12.600Z,-1.51
2019-02-14T05:44:43.958Z,-1.61
2019-02-14T05:47:15.388Z,-1.49
2019-02-14T05:49:46.894Z,-1.41
2019-02-14T05:52:18.162Z,-1.39
2019-02-14T05:54:49.652Z,-1.43
2019-02-14T05:57:21.300Z,-1.39
2019-02-14T05:59:52.856Z,-1.42
2019-02-14T06:02:24.514Z,-1.43
2019-02-14T06:04:56.056Z,-1.31
2019-02-14T06:07:27.656Z,-1.29
2019-02-14T06:09:59.052Z,-1.27
2019-02-14T06:12:30.683Z,-1.45
2019-02-14T06:15:02.320Z,-1.47
2019-02-14T06:17:33.836Z,-1.30
2019-02-14T06:20:05.847Z,-0.91
2019-02-14T06:22:37.407Z,-0.80
2019-02-14T06:25:08.952Z,-0.40
2019-02-14T06:27:41.219Z,-0.28
2019-02-14T06:30:13.650Z,0.17
2019-02-14T06:32:45.249Z,0.39
2019-02-14T06:35:16.758Z,0.40
2019-02-14T06:37:48.330Z,0.88
2019-02-14T06:40:20.088Z,1.17
2019-02-14T06:42:51.446Z,1.26
2019-02-14T06:45:22.759Z,1.58
2019-02-14T06:47:54.157Z,1.40
2019-02-14T06:50:25.689Z,1.16
2019-02-14T06:52:57.232Z,1.68
2019-02-14T06:55:28.612Z,2.05
2019-02-14T06:58:00.426Z,2.36
2019-02-14T07:00:31.910Z,2.42
2019-02-14T07:03:03.669Z,2.62
2019-02-14T07:05:35.463Z,2.62
2019-02-14T07:08:07.028Z,2.53
2019-02-14T07:10:38.558Z,2.73
2019-02-14T07:13:10.076Z,2.54
2019-02-14T07:15:41.679Z,2.39
2019-02-14T07:18:12.941Z,2.30
2019-02-14T07:20:44.358Z,2.36
2019-02-14T07:23:15.595Z,2.43
2019-02-14T07:25:47.231Z,2.53
2019-02-14T07:28:18.637Z,2.61
2019-02-14T07:30:50.501Z,2.81
2019-02-14T07:33:21.981Z,2.87
2019-02-14T07:35:53.584Z,2.60
2019-02-14T07:38:25.060Z,2.54
2019-02-14T07:40:56.753Z,2.64
2019-02-14T07:43:28.357Z,2.57
2019-02-14T07:45:59.588Z,2.71
2019-02-14T07:48:30.800Z,3.04
2019-02-14T07:51:02.105Z,3.44
2019-02-14T07:53:33.331Z,3.59
2019-02-14T07:56:04.806Z,3.83
2019-02-14T07:58:36.135Z,3.86
2019-02-14T08:01:07.961Z,4.15
2019-02-14T08:03:39.233Z,3.87
2019-02-14T08:06:10.548Z,4.07
2019-02-14T08:08:41.880Z,4.14
2019-02-14T08:11:13.642Z,4.05
2019-02-14T08:13:44.960Z,4.02
2019-02-14T08:16:16.520Z,4.01
2019-02-14T08:18:48.267Z,3.81
2019-02-14T08:21:19.530Z,4.13
2019-02-14T08:23:51.024Z,4.19
2019-02-14T08:26:22.512Z,4.29
2019-02-14T08:28:54.380Z,4.08
2019-02-14T08:31:25.675Z,4.52
2019-02-14T08:33:57.243Z,4.81
2019-02-14T08:36:28.988Z,4.97
2019-02-14T08:39:00.674Z,5.04
2019-02-14T08:41:33.847Z,4.83
2019-02-14T08:44:05.378Z,5.17
2019-02-14T08:46:36.991Z,5.38
2019-02-14T08:49:08.599Z,5.48
2019-02-14T08:51:40.375Z,5.75
2019-02-14T08:54:11.942Z,5.85
2019-02-14T08:56:43.657Z,5.70
2019-02-14T08:59:15.331Z,5.79
2019-02-14T09:01:47.049Z,5.91
2019-02-14T09:04:18.598Z,6.03
2019-02-14T09:06:50.285Z,6.14
2019-02-14T09:09:21.944Z,6.30
2019-02-14T09:11:53.545Z,6.22
2019-02-14T09:14:25.120Z,6.28
2019-02-14T09:16:56.768Z,5.49
2019-02-14T09:19:28.159Z,5.64
2019-02-14T09:21:59.655Z,5.85
2019-02-14T09:24:30.908Z,6.30
2019-02-14T09:27:02.318Z,6.45
2019-02-14T09:29:33.775Z,6.69
2019-02-14T09:32:05.559Z,6.93
2019-02-14T09:34:37.237Z,7.22
2019-02-14T09:37:08.683Z,7.63
2019-02-14T09:39:41.066Z,7.26
2019-02-14T09:42:12.540Z,7.25
2019-02-14T09:44:43.886Z,7.49
2019-02-14T09:47:15.201Z,7.59
2019-02-14T09:49:46.587Z,7.48
2019-02-14T09:52:18.036Z,7.89
2019-02-14T09:54:49.456Z,7.61
2019-02-14T09:57:21.208Z,7.73
2019-02-14T09:59:52.781Z,7.90
2019-02-14T10:02:25.798Z,7.83
2019-02-14T10:04:57.392Z,8.39
2019-02-14T10:07:28.964Z,8.24
2019-02-14T10:10:00.641Z,8.08
2019-02-14T10:12:32.083Z,7.98
2019-02-14T10:15:03.973Z,7.91
2019-02-14T10:17:35.240Z,7.85
2019-02-14T10:20:07.922Z,7.84
2019-02-14T10:22:39.674Z,8.03
2019-02-14T10:25:11.569Z,8.27
2019-02-14T10:27:42.912Z,8.35
2019-02-14T10:30:16.538Z,8.26
2019-02-14T10:32:47.952Z,8.48
2019-02-14T10:35:19.557Z,8.56
2019-02-14T10:37:50.834Z,8.85
2019-02-14T10:40:22.135Z,8.72
2019-02-14T10:42:53.662Z,8.77
2019-02-14T10:45:26.010Z,8.39
2019-02-14T10:47:57.404Z,8.51
2019-02-14T10:50:28.913Z,8.33
2019-02-14T10:53:00.484Z,8.58
2019-02-14T10:55:31.981Z,8.41
2019-02-14T10:58:03.798Z,8.61
2019-02-14T11:00:35.579Z,8.57
2019-02-14T11:03:07.362Z,8.90
2019-02-14T11:05:38.891Z,8.94
2019-02-14T11:08:10.309Z,9.04
2019-02-14T11:10:41.660Z,9.30
2019-02-14T11:13:13.007Z,9.86
2019-02-14T11:15:44.237Z,9.72
2019-02-14T11:18:15.685Z,9.52
2019-02-14T11:20:47.085Z,9.47
2019-02-14T11:23:18.394Z,9.30
2019-02-14T11:25:49.788Z,9.05
2019-02-14T11:28:21.356Z,9.34
2019-02-14T11:30:52.970Z,8.85
2019-02-14T11:33:24.194Z,8.77
2019-02-14T11:35:55.729Z,8.48
2019-02-14T11:38:27.107Z,8.23
2019-02-14T11:40:58.686Z,8.04
2019-02-14T11:43:30.102Z,7.79
2019-02-14T11:46:01.484Z,7.85
2019-02-14T11:48:32.672Z,8.05
2019-02-14T11:51:03.919Z,8.35
2019-02-14T11:53:35.360Z,8.31
2019-02-14T11:56:06.679Z,8.30
2019-02-14T11:58:38.232Z,8.76
2019-02-14T12:01:09.850Z,9.04
2019-02-14T12:03:41.556Z,9.21
2019-02-14T12:06:17.616Z,9.30
2019-02-14T12:08:57.877Z,9.31
2019-02-14T12:11:19.057Z,9.27
2019-02-14T12:13:50.793Z,9.28
2019-02-14T12:16:22.014Z,9.09
2019-02-14T12:18:53.568Z,9.16
2019-02-14T12:21:24.877Z,9.07
2019-02-14T12:23:56.379Z,9.02
2019-02-14T12:26:27.723Z,8.60
2019-02-14T12:28:59.234Z,8.55
2019-02-14T12:31:30.521Z,8.82
2019-02-14T12:34:03.457Z,8.76
2019-02-14T12:36:35.231Z,8.56
2019-02-14T12:39:09.971Z,8.13
2019-02-14T12:41:40.549Z,7.79
2019-02-14T12:44:11.862Z,7.23
2019-02-14T12:46:43.499Z,7.13
2019-02-14T12:49:15.107Z,6.76
2019-02-14T12:51:46.825Z,6.56
2019-02-14T12:54:18.511Z,6.44
2019-02-14T12:56:49.950Z,6.48
2019-02-14T12:59:21.454Z,6.50
2019-02-14T13:01:53.018Z,6.26
2019-02-14T13:04:24.580Z,6.01
2019-02-14T13:06:55.834Z,5.96
2019-02-14T13:09:27.283Z,5.95
2019-02-14T13:11:58.821Z,5.89
2019-02-14T13:14:30.176Z,5.80
2019-02-14T13:17:01.710Z,5.77
2019-02-14T13:19:33.284Z,5.73
2019-02-14T13:22:04.482Z,5.81
2019-02-14T13:24:35.807Z,5.77
2019-02-14T13:27:07.405Z,5.49
2019-02-14T13:29:38.896Z,5.31
2019-02-14T13:32:10.306Z,5.54
2019-02-14T13:34:41.582Z,5.51
2019-02-14T13:37:13.056Z,5.48
2019-02-14T13:39:44.538Z,5.35
2019-02-14T13:42:16.298Z,5.34
2019-02-14T13:44:47.878Z,5.13
2019-02-14T13:47:19.243Z,5.08
2019-02-14T13:49:50.814Z,5.08
2019-02-14T13:52:22.305Z,5.06
2019-02-14T13:54:53.921Z,4.69
2019-02-14T13:57:25.684Z,4.67
2019-02-14T13:59:57.271Z,4.59
2019-02-14T14:02:28.916Z,4.56
2019-02-14T14:05:00.442Z,4.67
2019-02-14T14:07:40.185Z,4.41
2019-02-14T14:10:05.437Z,4.54
2019-02-14T14:12:37.139Z,4.53
2019-02-14T14:15:08.949Z,4.46
2019-02-14T14:17:40.821Z,4.50
2019-02-14T14:20:12.560Z,4.49
2019-02-14T14:22:44.242Z,4.57
2019-02-14T14:25:16.069Z,4.64
2019-02-14T14:27:47.563Z,4.59
2019-02-14T14:30:18.781Z,4.30
2019-02-14T14:32:50.176Z,4.51
2019-02-14T14:35:21.526Z,4.38
2019-02-14T14:37:52.846Z,4.39
2019-02-14T14:40:24.257Z,4.25
2019-02-14T14:43:25.091Z,4.22
2019-02-14T14:46:12.770Z,4.17
2019-02-14T14:48:44.377Z,4.04
2019-02-14T14:51:16.201Z,3.93
2019-02-14T14:53:47.607Z,3.95
2019-02-14T14:56:19.045Z,3.98
2019-02-14T14:58:50.461Z,3.92
2019-02-14T15:01:22.683Z,3.98
2019-02-14T15:03:55.145Z,3.95
2019-02-14T15:06:26.468Z,3.96
2019-02-14T15:08:58.019Z,3.98
2019-02-14T15:11:29.323Z,3.91
2019-02-14T15:14:01.778Z,3.88
2019-02-14T15:16:33.192Z,3.91
2019-02-14T15:19:04.766Z,3.90
2019-02-14T15:21:37.083Z,3.90
2019-02-14T15:24:08.672Z,3.85
2019-02-14T15:26:40.229Z,3.75
2019-02-14T15:29:11.968Z,3.74
2019-02-14T15:31:43.232Z,3.72
2019-02-14T15:34:14.559Z,3.73
2019-02-14T15:36:47.294Z,3.75
2019-02-14T15:39:19.474Z,3.73
2019-02-14T15:41:50.905Z,3.63
2019-02-14T15:44:22.515Z,3.69
2019-02-14T15:46:53.994Z,3.71
2019-02-14T15:49:25.504Z,3.77
2019-02-14T15:51:57.032Z,3.67
2019-02-14T15:54:28.563Z,3.61
2019-02-14T15:56:59.975Z,3.46
2019-02-14T15:59:31.663Z,3.51
2019-02-14T16:02:03.893Z,3.42
2019-02-14T16:04:36.012Z,3.44
2019-02-14T16:07:07.401Z,3.51
2019-02-14T16:09:41.260Z,3.53
2019-02-14T16:12:12.093Z,3.48
2019-02-14T16:14:44.804Z,3.38
2019-02-14T16:17:16.324Z,3.33
2019-02-14T16:19:47.799Z,3.48
2019-02-14T16:22:19.560Z,3.41
2019-02-14T16:24:50.930Z,3.43
2019-02-14T16:27:22.976Z,3.41
2019-02-14T16:29:55.147Z,3.29
2019-02-14T16:32:26.782Z,3.35
2019-02-14T16:34:58.099Z,3.29
2019-02-14T16:37:29.762Z,3.29
2019-02-14T16:40:01.224Z,3.18
2019-02-14T16:42:32.875Z,3.03
2019-02-14T16:45:04.437Z,3.07
2019-02-14T16:47:35.824Z,3.11
2019-02-14T16:50:08.109Z,3.09
2019-02-14T16:52:39.499Z,2.98
2019-02-14T16:55:11.010Z,2.90
2019-02-14T16:57:42.450Z,2.84
2019-02-14T17:00:14.159Z,2.75
2019-02-14T17:02:45.852Z,2.77
2019-02-14T17:05:17.514Z,2.74
2019-02-14T17:07:49.101Z,2.70
2019-02-14T17:10:20.702Z,2.82
2019-02-14T17:12:52.082Z,2.86
2019-02-14T17:15:23.356Z,2.80
2019-02-14T17:17:54.840Z,2.83
2019-02-14T17:20:26.135Z,2.82
2019-02-14T17:22:57.635Z,2.78
2019-02-14T17:25:29.381Z,2.66
2019-02-14T17:28:01.029Z,2.70
2019-02-14T17:30:32.538Z,2.68
2019-02-14T17:33:03.878Z,2.70
2019-02-14T17:35:35.173Z,2.75
2019-02-14T17:38:06.634Z,2.62
2019-02-14T17:40:45.825Z,2.54
2019-02-14T17:43:10.990Z,2.52
2019-02-14T17:45:42.496Z,2.59
2019-02-14T17:48:14.150Z,2.56
2019-02-14T17:50:45.686Z,2.64
2019-02-14T17:53:17.153Z,2.68
2019-02-14T17:55:48.777Z,2.62
2019-02-14T17:58:20.410Z,2.73
2019-02-14T18:00:51.709Z,2.81
2019-02-14T18:03:24.417Z,2.81
2019-02-14T18:05:56.078Z,2.64
2019-02-14T18:08:27.521Z,2.66
2019-02-14T18:10:58.735Z,2.54
2019-02-14T18:13:29.976Z,2.56
2019-02-14T18:16:01.514Z,2.51
2019-02-14T18:18:32.900Z,2.59
2019-02-14T18:21:04.375Z,2.75
2019-02-14T18:23:35.603Z,2.66
2019-02-14T18:26:06.959Z,2.74
2019-02-14T18:28:38.293Z,2.88
2019-02-14T18:31:09.811Z,2.73
2019-02-14T18:33:41.283Z,2.59
2019-02-14T18:36:12.886Z,2.58
2019-02-14T18:38:44.702Z,2.60
2019-02-14T18:41:16.049Z,2.57
2019-02-14T18:43:47.589Z,2.53
2019-02-14T18:46:19.230Z,2.57
2019-02-14T18:48:50.708Z,2.62
2019-02-14T18:51:22.383Z,2.71
2019-02-14T18:53:53.626Z,2.56
2019-02-14T18:56:24.924Z,2.53
2019-02-14T18:58:57.443Z,2.52
2019-02-14T19:01:29.290Z,2.43
2019-02-14T19:04:00.541Z,2.38
2019-02-14T19:06:32.092Z,2.45
2019-02-14T19:09:04.870Z,2.52
2019-02-14T19:11:36.928Z,2.44
2019-02-14T19:14:09.244Z,2.57
2019-02-14T19:16:40.603Z,2.64
2019-02-14T19:19:13.054Z,2.52
2019-02-14T19:21:44.627Z,2.56
2019-02-14T19:24:16.149Z,2.64
2019-02-14T19:26:47.785Z,2.63
2019-02-14T19:29:19.437Z,2.62
2019-02-14T19:31:50.885Z,2.60
2019-02-14T19:34:22.227Z,2.59
2019-02-14T19:36:53.858Z,2.71
2019-02-14T19:39:25.295Z,2.71
2019-02-14T19:41:56.792Z,2.71
2019-02-14T19:44:28.029Z,2.74
2019-02-14T19:46:59.285Z,2.75
2019-02-14T19:49:30.771Z,2.81
2019-02-14T19:52:02.108Z,2.92
2019-02-14T19:54:33.428Z,2.79
2019-02-14T19:57:05.243Z,3.01
2019-02-14T19:59:36.687Z,2.92
2019-02-14T20:02:08.018Z,3.09
2019-02-14T20:04:40.376Z,2.94
2019-02-14T20:07:11.813Z,2.87
2019-02-14T20:09:43.093Z,2.86
2019-02-14T20:12:14.357Z,2.89
2019-02-14T20:14:45.580Z,2.82
2019-02-14T20:17:18.352Z,2.87
2019-02-14T20:19:49.594Z,2.90
2019-02-14T20:22:21.221Z,2.87
2019-02-14T20:24:52.745Z,3.00
2019-02-14T20:27:24.325Z,2.98
2019-02-14T20:29:55.935Z,2.93
2019-02-14T20:32:27.445Z,2.99
2019-02-14T20:35:01.443Z,3.07
2019-02-14T20:37:32.028Z,2.85
2019-02-14T20:40:05.536Z,2.98
2019-02-14T20:42:37.164Z,2.97
2019-02-14T20:45:09.250Z,2.88
2019-02-14T20:47:40.938Z,2.97
2019-02-14T20:50:13.097Z,2.91
2019-02-14T20:52:44.583Z,2.96
2019-02-14T20:55:16.730Z,2.92
2019-02-14T20:57:48.248Z,3.01
2019-02-14T21:00:28.928Z,3.00
2019-02-14T21:03:00.240Z,3.04
2019-02-14T21:05:32.023Z,3.07
2019-02-14T21:08:04.751Z,2.97
2019-02-14T21:10:35.987Z,3.10
2019-02-14T21:13:07.349Z,3.08
2019-02-14T21:15:38.989Z,3.13
2019-02-14T21:18:10.298Z,3.18
2019-02-14T21:20:41.889Z,3.15
2019-02-14T21:23:13.190Z,3.04
2019-02-14T21:25:44.644Z,3.20
2019-02-14T21:28:16.138Z,3.13
2019-02-14T21:30:47.548Z,3.10
2019-02-14T21:33:18.770Z,2.94
2019-02-14T21:35:50.367Z,3.03
2019-02-14T21:38:21.559Z,2.96
2019-02-14T21:40:52.923Z,2.94
2019-02-14T21:43:24.166Z,3.10
2019-02-14T21:45:55.885Z,3.08
2019-02-14T21:48:27.439Z,2.94
2019-02-14T21:50:58.733Z,2.96
2019-02-14T21:53:29.977Z,2.98
2019-02-14T21:56:01.404Z,3.00
2019-02-14T21:58:33.168Z,2.99
2019-02-14T22:01:04.744Z,2.98
2019-02-14T22:03:36.448Z,2.98
2019-02-14T22:06:07.864Z,3.03
2019-02-14T22:08:39.444Z,3.00
2019-02-14T22:11:10.699Z,2.97
2019-02-14T22:13:41.927Z,2.92
2019-02-14T22:16:13.233Z,2.83
2019-02-14T22:18:44.619Z,2.82
2019-02-14T22:21:16.139Z,2.90
2019-02-14T22:23:47.348Z,2.88
2019-02-14T22:26:18.897Z,2.94
2019-02-14T22:28:50.376Z,2.98
2019-02-14T22:31:21.980Z,3.00
2019-02-14T22:33:53.458Z,2.90
2019-02-14T22:36:25.009Z,3.02
2019-02-14T22:38:56.576Z,2.96
2019-02-14T22:41:28.067Z,3.06
2019-02-14T22:43:59.352Z,3.02
2019-02-14T22:46:30.571Z,2.86
2019-02-14T22:49:02.075Z,2.78
2019-02-14T22:51:33.406Z,2.78
2019-02-14T22:54:05.064Z,2.70
2019-02-14T22:56:36.649Z,2.72
2019-02-14T22:59:08.419Z,2.79
2019-02-14T23:01:40.713Z,2.83
2019-02-14T23:04:12.325Z,2.75
2019-02-14T23:06:44.142Z,2.84
2019-02-14T23:09:16.211Z,2.93
2019-02-14T23:11:47.869Z,2.90
2019-02-14T23:14:19.423Z,2.90
2019-02-14T23:16:51.090Z,2.89
2019-02-14T23:19:22.508Z,2.85
2019-02-14T23:21:54.065Z,2.92
2019-02-14T23:24:25.558Z,2.94
2019-02-14T23:26:56.946Z,3.04
2019-02-14T23:29:28.539Z,3.10
2019-02-14T23:31:59.885Z,3.22
2019-02-14T23:34:31.401Z,3.18
2019-02-14T23:37:02.605Z,3.25
2019-02-14T23:39:34.226Z,3.31
2019-02-14T23:42:05.612Z,3.26
2019-02-14T23:44:36.841Z,3.25
2019-02-14T23:47:08.034Z,3.27
2019-02-14T23:49:39.562Z,3.27
2019-02-14T23:52:11.169Z,3.24
2019-02-14T23:54:42.667Z,3.28
2019-02-14T23:57:14.012Z,3.25
2019-02-14T23:59:45.541Z,3.38
